sensor_id;sensor_type;location;lat;lon;timestamp;P1;durP1;ratioP1;P2;durP2;ratioP2
422;SDS011;198;48.752;9.180;2023-09-07T00:01:29;2.70;;;2.50;;
422;SDS011;198;48.752;9.180;2023-09-07T00:03:54;5.20;;;2.70;;
422;SDS011;198;48.752;9.180;2023-09-07T00:06:20;3.63;;;2.17;;
422;SDS011;198;48.752;9.180;2023-09-07T00:08:45;3.83;;;2.70;;
422;SDS011;198;48.752;9.180;2023-09-07T00:11:11;4.07;;;2.47;;
422;SDS011;198;48.752;9.180;2023-09-07T00:13:37;3.77;;;2.50;;
422;SDS011;198;48.752;9.180;2023-09-07T00:16:03;2.33;;;2.10;;
422;SDS011;198;48.752;9.180;2023-09-07T00:18:32;3.10;;;2.20;;
422;SDS011;198;48.752;9.180;2023-09-07T00:20:58;3.60;;;2.23;;
422;SDS011;198;48.752;9.180;2023-09-07T00:23:24;2.97;;;2.50;;
422;SDS011;198;48.752;9.180;2023-09-07T00:25:50;4.10;;;2.43;;
422;SDS011;198;48.752;9.180;2023-09-07T00:28:16;4.60;;;2.20;;
422;SDS011;198;48.752;9.180;2023-09-07T00:30:41;3.23;;;2.33;;
422;SDS011;198;48.752;9.180;2023-09-07T00:33:07;2.30;;;2.13;;
422;SDS011;198;48.752;9.180;2023-09-07T00:35:33;3.83;;;2.57;;
422;SDS011;198;48.752;9.180;2023-09-07T00:37:59;3.03;;;2.70;;
422;SDS011;198;48.752;9.180;2023-09-07T00:40:25;4.47;;;2.63;;
422;SDS011;198;48.752;9.180;2023-09-07T00:42:51;3.63;;;2.47;;
422;SDS011;198;48.752;9.180;2023-09-07T00:45:16;3.40;;;2.50;;
422;SDS011;198;48.752;9.180;2023-09-07T00:47:42;4.07;;;2.40;;
422;SDS011;198;48.752;9.180;2023-09-07T00:50:08;4.70;;;2.87;;
422;SDS011;198;48.752;9.180;2023-09-07T00:52:34;5.33;;;2.63;;
422;SDS011;198;48.752;9.180;2023-09-07T00:55:01;3.13;;;2.80;;
422;SDS011;198;48.752;9.180;2023-09-07T00:57:29;6.43;;;3.57;;
422;SDS011;198;48.752;9.180;2023-09-07T00:59:54;4.87;;;3.00;;
422;SDS011;198;48.752;9.180;2023-09-07T01:02:20;3.97;;;2.87;;
422;SDS011;198;48.752;9.180;2023-09-07T01:04:45;4.07;;;2.77;;
422;SDS011;198;48.752;9.180;2023-09-07T01:07:18;4.67;;;3.30;;
422;SDS011;198;48.752;9.180;2023-09-07T01:09:51;3.20;;;2.50;;
422;SDS011;198;48.752;9.180;2023-09-07T01:12:20;4.40;;;2.90;;
422;SDS011;198;48.752;9.180;2023-09-07T01:14:46;7.33;;;3.00;;
422;SDS011;198;48.752;9.180;2023-09-07T01:17:12;4.20;;;2.63;;
422;SDS011;198;48.752;9.180;2023-09-07T01:19:38;4.60;;;2.93;;
422;SDS011;198;48.752;9.180;2023-09-07T01:22:04;3.47;;;2.90;;
422;SDS011;198;48.752;9.180;2023-09-07T01:24:32;4.93;;;3.20;;
422;SDS011;198;48.752;9.180;2023-09-07T01:27:00;2.63;;;2.30;;
422;SDS011;198;48.752;9.180;2023-09-07T01:29:30;2.83;;;2.20;;
422;SDS011;198;48.752;9.180;2023-09-07T01:31:56;11.00;;;2.93;;
422;SDS011;198;48.752;9.180;2023-09-07T01:34:22;5.23;;;3.20;;
422;SDS011;198;48.752;9.180;2023-09-07T01:36:48;3.97;;;2.90;;
422;SDS011;198;48.752;9.180;2023-09-07T01:39:14;6.20;;;3.10;;
422;SDS011;198;48.752;9.180;2023-09-07T01:41:39;4.40;;;2.80;;
422;SDS011;198;48.752;9.180;2023-09-07T01:44:05;4.53;;;2.80;;
422;SDS011;198;48.752;9.180;2023-09-07T01:46:30;5.17;;;3.10;;
422;SDS011;198;48.752;9.180;2023-09-07T01:48:56;4.03;;;2.60;;
422;SDS011;198;48.752;9.180;2023-09-07T01:51:21;3.80;;;2.60;;
422;SDS011;198;48.752;9.180;2023-09-07T01:53:50;4.67;;;2.90;;
422;SDS011;198;48.752;9.180;2023-09-07T01:56:16;9.30;;;2.90;;
422;SDS011;198;48.752;9.180;2023-09-07T01:58:42;3.70;;;2.63;;
422;SDS011;198;48.752;9.180;2023-09-07T02:01:19;3.90;;;2.77;;
422;SDS011;198;48.752;9.180;2023-09-07T02:03:55;3.80;;;2.63;;
422;SDS011;198;48.752;9.180;2023-09-07T02:06:21;5.97;;;3.33;;
422;SDS011;198;48.752;9.180;2023-09-07T02:08:47;4.37;;;2.70;;
422;SDS011;198;48.752;9.180;2023-09-07T02:11:13;6.20;;;2.97;;
422;SDS011;198;48.752;9.180;2023-09-07T02:13:42;5.30;;;2.40;;
422;SDS011;198;48.752;9.180;2023-09-07T02:16:08;10.43;;;3.07;;
422;SDS011;198;48.752;9.180;2023-09-07T02:18:33;3.70;;;2.50;;
422;SDS011;198;48.752;9.180;2023-09-07T02:21:03;4.30;;;3.43;;
422;SDS011;198;48.752;9.180;2023-09-07T02:23:31;5.43;;;2.80;;
422;SDS011;198;48.752;9.180;2023-09-07T02:25:57;3.77;;;2.80;;
422;SDS011;198;48.752;9.180;2023-09-07T02:28:23;3.93;;;3.13;;
422;SDS011;198;48.752;9.180;2023-09-07T02:30:49;5.00;;;2.33;;
422;SDS011;198;48.752;9.180;2023-09-07T02:33:14;4.73;;;3.10;;
422;SDS011;198;48.752;9.180;2023-09-07T02:35:40;6.00;;;2.60;;
422;SDS011;198;48.752;9.180;2023-09-07T02:40:41;3.83;;;2.47;;
422;SDS011;198;48.752;9.180;2023-09-07T02:43:07;4.13;;;3.13;;
422;SDS011;198;48.752;9.180;2023-09-07T02:45:33;2.70;;;2.40;;
422;SDS011;198;48.752;9.180;2023-09-07T02:47:59;6.17;;;3.90;;
422;SDS011;198;48.752;9.180;2023-09-07T02:50:25;5.50;;;3.00;;
422;SDS011;198;48.752;9.180;2023-09-07T02:52:50;5.17;;;2.77;;
422;SDS011;198;48.752;9.180;2023-09-07T02:55:16;7.90;;;2.63;;
422;SDS011;198;48.752;9.180;2023-09-07T02:57:41;4.83;;;2.90;;
422;SDS011;198;48.752;9.180;2023-09-07T03:00:07;4.33;;;3.10;;
422;SDS011;198;48.752;9.180;2023-09-07T03:02:35;3.03;;;2.63;;
422;SDS011;198;48.752;9.180;2023-09-07T03:05:01;3.03;;;2.83;;
422;SDS011;198;48.752;9.180;2023-09-07T03:07:30;3.97;;;2.60;;
422;SDS011;198;48.752;9.180;2023-09-07T03:09:57;4.10;;;3.23;;
422;SDS011;198;48.752;9.180;2023-09-07T03:12:23;5.50;;;2.93;;
422;SDS011;198;48.752;9.180;2023-09-07T03:14:48;4.70;;;3.70;;
422;SDS011;198;48.752;9.180;2023-09-07T03:17:15;7.43;;;3.27;;
422;SDS011;198;48.752;9.180;2023-09-07T03:19:41;4.00;;;2.87;;
422;SDS011;198;48.752;9.180;2023-09-07T03:22:07;5.80;;;4.43;;
422;SDS011;198;48.752;9.180;2023-09-07T03:24:33;5.00;;;3.43;;
422;SDS011;198;48.752;9.180;2023-09-07T03:26:59;7.17;;;3.27;;
422;SDS011;198;48.752;9.180;2023-09-07T03:29:25;6.10;;;2.93;;
422;SDS011;198;48.752;9.180;2023-09-07T03:31:50;3.90;;;2.70;;
422;SDS011;198;48.752;9.180;2023-09-07T03:34:16;4.50;;;3.40;;
422;SDS011;198;48.752;9.180;2023-09-07T03:36:41;10.83;;;4.30;;
422;SDS011;198;48.752;9.180;2023-09-07T03:39:07;5.73;;;3.27;;
422;SDS011;198;48.752;9.180;2023-09-07T03:41:33;4.53;;;3.07;;
422;SDS011;198;48.752;9.180;2023-09-07T03:43:59;5.73;;;3.10;;
422;SDS011;198;48.752;9.180;2023-09-07T03:46:25;10.33;;;5.53;;
422;SDS011;198;48.752;9.180;2023-09-07T03:48:51;5.47;;;3.50;;
422;SDS011;198;48.752;9.180;2023-09-07T03:51:17;6.30;;;3.43;;
422;SDS011;198;48.752;9.180;2023-09-07T03:53:43;9.23;;;3.70;;
422;SDS011;198;48.752;9.180;2023-09-07T03:56:08;5.33;;;3.67;;
422;SDS011;198;48.752;9.180;2023-09-07T03:58:34;6.10;;;3.40;;
422;SDS011;198;48.752;9.180;2023-09-07T04:00:59;6.13;;;4.10;;
422;SDS011;198;48.752;9.180;2023-09-07T04:03:25;6.20;;;4.17;;
422;SDS011;198;48.752;9.180;2023-09-07T04:05:51;5.17;;;3.17;;
422;SDS011;198;48.752;9.180;2023-09-07T04:08:16;4.10;;;3.20;;
422;SDS011;198;48.752;9.180;2023-09-07T04:10:42;7.53;;;3.63;;
422;SDS011;198;48.752;9.180;2023-09-07T04:13:07;5.23;;;3.70;;
422;SDS011;198;48.752;9.180;2023-09-07T04:15:33;5.37;;;3.23;;
422;SDS011;198;48.752;9.180;2023-09-07T04:18:06;4.97;;;3.50;;
422;SDS011;198;48.752;9.180;2023-09-07T04:20:31;7.80;;;4.90;;
422;SDS011;198;48.752;9.180;2023-09-07T04:22:57;4.90;;;3.60;;
422;SDS011;198;48.752;9.180;2023-09-07T04:25:22;6.17;;;4.03;;
422;SDS011;198;48.752;9.180;2023-09-07T04:27:48;9.10;;;4.43;;
422;SDS011;198;48.752;9.180;2023-09-07T04:30:13;8.00;;;3.80;;
422;SDS011;198;48.752;9.180;2023-09-07T04:32:39;11.47;;;4.67;;
422;SDS011;198;48.752;9.180;2023-09-07T04:35:04;12.33;;;5.07;;
422;SDS011;198;48.752;9.180;2023-09-07T04:37:30;10.87;;;4.43;;
422;SDS011;198;48.752;9.180;2023-09-07T04:39:56;5.80;;;4.20;;
422;SDS011;198;48.752;9.180;2023-09-07T04:42:21;13.00;;;4.33;;
422;SDS011;198;48.752;9.180;2023-09-07T04:44:47;7.77;;;4.60;;
422;SDS011;198;48.752;9.180;2023-09-07T04:47:13;9.47;;;4.93;;
422;SDS011;198;48.752;9.180;2023-09-07T04:49:40;9.00;;;5.37;;
422;SDS011;198;48.752;9.180;2023-09-07T04:52:06;6.70;;;4.40;;
422;SDS011;198;48.752;9.180;2023-09-07T04:54:32;8.10;;;4.97;;
422;SDS011;198;48.752;9.180;2023-09-07T04:56:57;15.93;;;4.80;;
422;SDS011;198;48.752;9.180;2023-09-07T04:59:23;9.03;;;6.03;;
422;SDS011;198;48.752;9.180;2023-09-07T05:01:48;9.53;;;5.30;;
422;SDS011;198;48.752;9.180;2023-09-07T05:04:14;9.10;;;5.17;;
422;SDS011;198;48.752;9.180;2023-09-07T05:06:39;6.33;;;4.57;;
422;SDS011;198;48.752;9.180;2023-09-07T05:09:06;5.90;;;4.10;;
422;SDS011;198;48.752;9.180;2023-09-07T05:11:32;7.07;;;4.60;;
422;SDS011;198;48.752;9.180;2023-09-07T05:14:00;7.13;;;5.17;;
422;SDS011;198;48.752;9.180;2023-09-07T05:16:26;6.60;;;4.50;;
422;SDS011;198;48.752;9.180;2023-09-07T05:18:52;8.13;;;6.10;;
422;SDS011;198;48.752;9.180;2023-09-07T05:21:17;8.50;;;5.43;;
422;SDS011;198;48.752;9.180;2023-09-07T05:23:43;8.50;;;4.87;;
422;SDS011;198;48.752;9.180;2023-09-07T05:26:08;8.43;;;4.60;;
422;SDS011;198;48.752;9.180;2023-09-07T05:28:34;6.13;;;4.27;;
422;SDS011;198;48.752;9.180;2023-09-07T05:31:00;5.70;;;4.00;;
422;SDS011;198;48.752;9.180;2023-09-07T05:33:25;5.97;;;4.20;;
422;SDS011;198;48.752;9.180;2023-09-07T05:35:51;10.23;;;5.40;;
422;SDS011;198;48.752;9.180;2023-09-07T05:38:16;6.83;;;4.40;;
422;SDS011;198;48.752;9.180;2023-09-07T05:40:43;7.53;;;4.43;;
422;SDS011;198;48.752;9.180;2023-09-07T05:43:12;11.33;;;4.93;;
422;SDS011;198;48.752;9.180;2023-09-07T05:45:41;8.80;;;5.37;;
422;SDS011;198;48.752;9.180;2023-09-07T05:48:07;7.67;;;4.80;;
422;SDS011;198;48.752;9.180;2023-09-07T05:50:36;6.40;;;4.17;;
422;SDS011;198;48.752;9.180;2023-09-07T05:53:02;7.67;;;5.13;;
422;SDS011;198;48.752;9.180;2023-09-07T05:55:29;6.23;;;4.10;;
422;SDS011;198;48.752;9.180;2023-09-07T05:57:55;14.47;;;6.77;;
422;SDS011;198;48.752;9.180;2023-09-07T06:00:21;9.20;;;5.13;;
422;SDS011;198;48.752;9.180;2023-09-07T06:02:48;7.57;;;4.80;;
422;SDS011;198;48.752;9.180;2023-09-07T06:05:14;13.97;;;5.10;;
422;SDS011;198;48.752;9.180;2023-09-07T06:07:39;9.77;;;5.27;;
422;SDS011;198;48.752;9.180;2023-09-07T06:10:05;8.60;;;4.63;;
422;SDS011;198;48.752;9.180;2023-09-07T06:12:32;10.87;;;4.70;;
422;SDS011;198;48.752;9.180;2023-09-07T06:14:58;8.50;;;5.10;;
422;SDS011;198;48.752;9.180;2023-09-07T06:17:24;7.10;;;4.90;;
422;SDS011;198;48.752;9.180;2023-09-07T06:19:50;9.27;;;4.83;;
422;SDS011;198;48.752;9.180;2023-09-07T06:22:15;11.10;;;5.87;;
422;SDS011;198;48.752;9.180;2023-09-07T06:24:41;8.60;;;4.93;;
422;SDS011;198;48.752;9.180;2023-09-07T06:27:06;9.97;;;5.77;;
422;SDS011;198;48.752;9.180;2023-09-07T06:29:31;23.53;;;7.13;;
422;SDS011;198;48.752;9.180;2023-09-07T06:31:57;9.83;;;5.37;;
422;SDS011;198;48.752;9.180;2023-09-07T06:34:23;5.93;;;4.47;;
422;SDS011;198;48.752;9.180;2023-09-07T06:36:49;10.10;;;5.00;;
422;SDS011;198;48.752;9.180;2023-09-07T06:39:14;9.57;;;5.37;;
422;SDS011;198;48.752;9.180;2023-09-07T06:41:40;8.17;;;4.70;;
422;SDS011;198;48.752;9.180;2023-09-07T06:44:05;9.70;;;4.97;;
422;SDS011;198;48.752;9.180;2023-09-07T06:46:31;9.00;;;5.40;;
422;SDS011;198;48.752;9.180;2023-09-07T06:48:56;10.53;;;6.00;;
422;SDS011;198;48.752;9.180;2023-09-07T06:51:22;5.90;;;4.43;;
422;SDS011;198;48.752;9.180;2023-09-07T06:53:47;7.07;;;4.67;;
422;SDS011;198;48.752;9.180;2023-09-07T06:56:15;10.40;;;5.77;;
422;SDS011;198;48.752;9.180;2023-09-07T06:58:40;9.10;;;4.63;;
422;SDS011;198;48.752;9.180;2023-09-07T07:01:06;7.70;;;5.00;;
422;SDS011;198;48.752;9.180;2023-09-07T07:03:32;9.13;;;4.53;;
422;SDS011;198;48.752;9.180;2023-09-07T07:05:59;15.87;;;5.67;;
422;SDS011;198;48.752;9.180;2023-09-07T07:08:25;8.07;;;5.20;;
422;SDS011;198;48.752;9.180;2023-09-07T07:10:50;5.67;;;4.00;;
422;SDS011;198;48.752;9.180;2023-09-07T07:13:16;8.43;;;4.70;;
422;SDS011;198;48.752;9.180;2023-09-07T07:15:42;8.93;;;4.30;;
422;SDS011;198;48.752;9.180;2023-09-07T07:18:07;7.03;;;4.63;;
422;SDS011;198;48.752;9.180;2023-09-07T07:20:37;8.90;;;5.20;;
422;SDS011;198;48.752;9.180;2023-09-07T07:23:04;6.57;;;4.87;;
422;SDS011;198;48.752;9.180;2023-09-07T07:25:31;6.67;;;4.33;;
422;SDS011;198;48.752;9.180;2023-09-07T07:27:58;7.20;;;5.00;;
422;SDS011;198;48.752;9.180;2023-09-07T07:30:30;13.43;;;4.40;;
422;SDS011;198;48.752;9.180;2023-09-07T07:32:56;7.90;;;5.57;;
422;SDS011;198;48.752;9.180;2023-09-07T07:35:22;8.10;;;5.20;;
422;SDS011;198;48.752;9.180;2023-09-07T07:37:48;9.80;;;5.80;;
422;SDS011;198;48.752;9.180;2023-09-07T07:40:14;8.80;;;5.73;;
422;SDS011;198;48.752;9.180;2023-09-07T07:42:40;8.93;;;4.20;;
422;SDS011;198;48.752;9.180;2023-09-07T07:45:05;8.17;;;5.10;;
422;SDS011;198;48.752;9.180;2023-09-07T07:47:32;9.90;;;5.70;;
422;SDS011;198;48.752;9.180;2023-09-07T07:49:57;20.00;;;4.93;;
422;SDS011;198;48.752;9.180;2023-09-07T07:52:23;11.33;;;6.30;;
422;SDS011;198;48.752;9.180;2023-09-07T07:54:48;12.77;;;5.10;;
422;SDS011;198;48.752;9.180;2023-09-07T07:57:14;15.70;;;6.20;;
422;SDS011;198;48.752;9.180;2023-09-07T07:59:39;9.80;;;6.00;;
422;SDS011;198;48.752;9.180;2023-09-07T08:02:05;21.67;;;6.13;;
422;SDS011;198;48.752;9.180;2023-09-07T08:04:31;9.77;;;5.60;;
422;SDS011;198;48.752;9.180;2023-09-07T08:06:57;7.43;;;5.57;;
422;SDS011;198;48.752;9.180;2023-09-07T08:09:28;9.90;;;5.70;;
422;SDS011;198;48.752;9.180;2023-09-07T08:11:57;10.33;;;5.00;;
422;SDS011;198;48.752;9.180;2023-09-07T08:14:23;8.17;;;5.97;;
422;SDS011;198;48.752;9.180;2023-09-07T08:16:50;9.77;;;6.13;;
422;SDS011;198;48.752;9.180;2023-09-07T08:19:15;9.23;;;5.27;;
422;SDS011;198;48.752;9.180;2023-09-07T08:21:41;17.00;;;5.63;;
422;SDS011;198;48.752;9.180;2023-09-07T08:24:07;10.30;;;6.07;;
422;SDS011;198;48.752;9.180;2023-09-07T08:26:35;13.00;;;6.17;;
422;SDS011;198;48.752;9.180;2023-09-07T08:29:01;10.20;;;6.93;;
422;SDS011;198;48.752;9.180;2023-09-07T08:31:33;10.07;;;5.87;;
422;SDS011;198;48.752;9.180;2023-09-07T08:34:04;11.30;;;5.93;;
422;SDS011;198;48.752;9.180;2023-09-07T08:36:30;16.90;;;5.00;;
422;SDS011;198;48.752;9.180;2023-09-07T08:39:03;8.10;;;5.73;;
422;SDS011;198;48.752;9.180;2023-09-07T08:41:35;11.10;;;5.63;;
422;SDS011;198;48.752;9.180;2023-09-07T08:44:06;11.70;;;5.67;;
422;SDS011;198;48.752;9.180;2023-09-07T08:46:33;10.20;;;6.20;;
422;SDS011;198;48.752;9.180;2023-09-07T08:48:59;15.90;;;6.43;;
422;SDS011;198;48.752;9.180;2023-09-07T08:51:28;19.03;;;6.00;;
422;SDS011;198;48.752;9.180;2023-09-07T08:53:56;10.27;;;5.13;;
422;SDS011;198;48.752;9.180;2023-09-07T08:56:22;9.70;;;5.93;;
422;SDS011;198;48.752;9.180;2023-09-07T08:58:48;9.40;;;5.43;;
422;SDS011;198;48.752;9.180;2023-09-07T09:01:17;9.73;;;5.40;;
422;SDS011;198;48.752;9.180;2023-09-07T09:03:43;8.27;;;5.60;;
422;SDS011;198;48.752;9.180;2023-09-07T09:06:10;6.50;;;5.20;;
422;SDS011;198;48.752;9.180;2023-09-07T09:08:46;8.20;;;5.00;;
422;SDS011;198;48.752;9.180;2023-09-07T09:11:14;8.53;;;5.47;;
422;SDS011;198;48.752;9.180;2023-09-07T09:13:41;12.57;;;4.83;;
422;SDS011;198;48.752;9.180;2023-09-07T09:16:07;16.67;;;5.90;;
422;SDS011;198;48.752;9.180;2023-09-07T09:18:33;7.67;;;5.20;;
422;SDS011;198;48.752;9.180;2023-09-07T09:20:59;10.17;;;4.63;;
422;SDS011;198;48.752;9.180;2023-09-07T09:23:34;10.03;;;5.60;;
422;SDS011;198;48.752;9.180;2023-09-07T09:26:01;6.20;;;3.77;;
422;SDS011;198;48.752;9.180;2023-09-07T09:28:28;9.40;;;5.07;;
422;SDS011;198;48.752;9.180;2023-09-07T09:30:56;6.73;;;4.77;;
422;SDS011;198;48.752;9.180;2023-09-07T09:33:23;5.67;;;3.90;;
422;SDS011;198;48.752;9.180;2023-09-07T09:35:50;8.73;;;4.33;;
422;SDS011;198;48.752;9.180;2023-09-07T09:38:15;6.60;;;3.73;;
422;SDS011;198;48.752;9.180;2023-09-07T09:40:42;6.67;;;4.00;;
422;SDS011;198;48.752;9.180;2023-09-07T09:43:08;5.40;;;3.80;;
422;SDS011;198;48.752;9.180;2023-09-07T09:45:34;4.97;;;3.90;;
422;SDS011;198;48.752;9.180;2023-09-07T09:48:00;3.13;;;3.00;;
422;SDS011;198;48.752;9.180;2023-09-07T09:50:28;9.90;;;5.30;;
422;SDS011;198;48.752;9.180;2023-09-07T09:52:53;11.33;;;4.50;;
422;SDS011;198;48.752;9.180;2023-09-07T09:55:19;13.30;;;4.87;;
422;SDS011;198;48.752;9.180;2023-09-07T09:57:46;10.90;;;4.20;;
422;SDS011;198;48.752;9.180;2023-09-07T10:00:12;3.87;;;3.00;;
422;SDS011;198;48.752;9.180;2023-09-07T10:03:10;5.83;;;3.80;;
422;SDS011;198;48.752;9.180;2023-09-07T10:05:39;8.97;;;4.00;;
422;SDS011;198;48.752;9.180;2023-09-07T10:08:09;4.87;;;3.73;;
422;SDS011;198;48.752;9.180;2023-09-07T10:10:36;4.23;;;3.20;;
422;SDS011;198;48.752;9.180;2023-09-07T10:13:03;2.43;;;2.27;;
422;SDS011;198;48.752;9.180;2023-09-07T10:15:29;3.10;;;3.00;;
422;SDS011;198;48.752;9.180;2023-09-07T10:18:14;4.63;;;3.60;;
422;SDS011;198;48.752;9.180;2023-09-07T10:20:54;10.80;;;3.10;;
422;SDS011;198;48.752;9.180;2023-09-07T10:23:23;6.78;;;3.85;;
422;SDS011;198;48.752;9.180;2023-09-07T10:26:02;4.88;;;3.10;;
422;SDS011;198;48.752;9.180;2023-09-07T10:28:29;4.00;;;2.60;;
422;SDS011;198;48.752;9.180;2023-09-07T10:30:59;4.93;;;3.03;;
422;SDS011;198;48.752;9.180;2023-09-07T10:33:25;3.20;;;2.38;;
422;SDS011;198;48.752;9.180;2023-09-07T10:35:51;7.30;;;2.22;;
422;SDS011;198;48.752;9.180;2023-09-07T10:38:17;2.70;;;2.35;;
422;SDS011;198;48.752;9.180;2023-09-07T10:40:44;4.35;;;3.08;;
422;SDS011;198;48.752;9.180;2023-09-07T10:43:12;3.70;;;3.30;;
422;SDS011;198;48.752;9.180;2023-09-07T10:45:38;2.92;;;2.25;;
422;SDS011;198;48.752;9.180;2023-09-07T10:48:04;6.43;;;3.20;;
422;SDS011;198;48.752;9.180;2023-09-07T10:50:30;2.83;;;2.67;;
422;SDS011;198;48.752;9.180;2023-09-07T10:53:06;3.58;;;2.38;;
422;SDS011;198;48.752;9.180;2023-09-07T10:55:36;5.95;;;2.92;;
422;SDS011;198;48.752;9.180;2023-09-07T10:58:03;2.90;;;2.45;;
422;SDS011;198;48.752;9.180;2023-09-07T11:00:29;5.65;;;2.25;;
422;SDS011;198;48.752;9.180;2023-09-07T11:02:54;6.45;;;2.95;;
422;SDS011;198;48.752;9.180;2023-09-07T11:05:20;3.65;;;2.45;;
422;SDS011;198;48.752;9.180;2023-09-07T11:07:45;2.58;;;2.10;;
422;SDS011;198;48.752;9.180;2023-09-07T11:10:11;4.80;;;2.75;;
422;SDS011;198;48.752;9.180;2023-09-07T11:12:37;3.53;;;3.22;;
422;SDS011;198;48.752;9.180;2023-09-07T11:15:03;8.70;;;2.40;;
422;SDS011;198;48.752;9.180;2023-09-07T11:17:29;8.60;;;3.20;;
422;SDS011;198;48.752;9.180;2023-09-07T11:19:55;4.32;;;2.88;;
422;SDS011;198;48.752;9.180;2023-09-07T11:22:21;3.55;;;2.60;;
422;SDS011;198;48.752;9.180;2023-09-07T11:24:47;3.85;;;3.05;;
422;SDS011;198;48.752;9.180;2023-09-07T11:27:13;4.90;;;2.42;;
422;SDS011;198;48.752;9.180;2023-09-07T11:29:38;3.45;;;2.70;;
422;SDS011;198;48.752;9.180;2023-09-07T11:32:07;5.18;;;3.55;;
422;SDS011;198;48.752;9.180;2023-09-07T11:34:33;4.82;;;3.28;;
422;SDS011;198;48.752;9.180;2023-09-07T11:37:02;2.42;;;2.22;;
422;SDS011;198;48.752;9.180;2023-09-07T11:39:28;9.18;;;2.90;;
422;SDS011;198;48.752;9.180;2023-09-07T11:41:54;7.10;;;3.10;;
422;SDS011;198;48.752;9.180;2023-09-07T11:44:19;2.50;;;2.30;;
422;SDS011;198;48.752;9.180;2023-09-07T11:46:45;2.78;;;2.30;;
422;SDS011;198;48.752;9.180;2023-09-07T11:49:11;15.60;;;2.70;;
422;SDS011;198;48.752;9.180;2023-09-07T11:51:37;4.05;;;3.05;;
422;SDS011;198;48.752;9.180;2023-09-07T11:54:02;3.17;;;2.22;;
422;SDS011;198;48.752;9.180;2023-09-07T11:56:29;4.55;;;3.15;;
422;SDS011;198;48.752;9.180;2023-09-07T11:58:54;5.05;;;3.10;;
422;SDS011;198;48.752;9.180;2023-09-07T12:01:20;3.03;;;2.58;;
422;SDS011;198;48.752;9.180;2023-09-07T12:03:46;2.17;;;2.00;;
422;SDS011;198;48.752;9.180;2023-09-07T12:06:12;4.72;;;2.22;;
422;SDS011;198;48.752;9.180;2023-09-07T12:08:41;5.97;;;2.95;;
422;SDS011;198;48.752;9.180;2023-09-07T12:11:07;2.90;;;2.65;;
422;SDS011;198;48.752;9.180;2023-09-07T12:13:33;2.72;;;1.95;;
422;SDS011;198;48.752;9.180;2023-09-07T12:15:58;2.90;;;2.00;;
422;SDS011;198;48.752;9.180;2023-09-07T12:18:26;5.30;;;3.42;;
422;SDS011;198;48.752;9.180;2023-09-07T12:20:51;6.60;;;2.35;;
422;SDS011;198;48.752;9.180;2023-09-07T12:23:17;3.00;;;2.38;;
422;SDS011;198;48.752;9.180;2023-09-07T12:25:42;3.28;;;2.38;;
422;SDS011;198;48.752;9.180;2023-09-07T12:28:08;2.28;;;2.00;;
422;SDS011;198;48.752;9.180;2023-09-07T12:30:34;2.58;;;2.38;;
422;SDS011;198;48.752;9.180;2023-09-07T12:32:59;3.17;;;2.35;;
422;SDS011;198;48.752;9.180;2023-09-07T12:35:25;3.63;;;2.28;;
422;SDS011;198;48.752;9.180;2023-09-07T12:37:50;1.98;;;1.88;;
422;SDS011;198;48.752;9.180;2023-09-07T12:40:16;2.25;;;2.05;;
422;SDS011;198;48.752;9.180;2023-09-07T12:42:42;2.35;;;2.15;;
422;SDS011;198;48.752;9.180;2023-09-07T12:45:09;1.85;;;1.75;;
422;SDS011;198;48.752;9.180;2023-09-07T12:47:39;3.10;;;2.10;;
422;SDS011;198;48.752;9.180;2023-09-07T12:50:05;3.08;;;2.63;;
422;SDS011;198;48.752;9.180;2023-09-07T12:52:32;2.20;;;1.95;;
422;SDS011;198;48.752;9.180;2023-09-07T12:55:00;4.25;;;1.88;;
422;SDS011;198;48.752;9.180;2023-09-07T12:57:27;3.80;;;2.42;;
422;SDS011;198;48.752;9.180;2023-09-07T12:59:52;2.00;;;1.90;;
422;SDS011;198;48.752;9.180;2023-09-07T13:02:18;2.47;;;2.28;;
422;SDS011;198;48.752;9.180;2023-09-07T13:04:43;4.70;;;2.60;;
422;SDS011;198;48.752;9.180;2023-09-07T13:07:09;4.13;;;1.92;;
422;SDS011;198;48.752;9.180;2023-09-07T13:09:34;2.53;;;2.30;;
422;SDS011;198;48.752;9.180;2023-09-07T13:12:00;3.90;;;2.13;;
422;SDS011;198;48.752;9.180;2023-09-07T13:14:25;2.40;;;2.22;;
422;SDS011;198;48.752;9.180;2023-09-07T13:16:51;3.42;;;2.33;;
422;SDS011;198;48.752;9.180;2023-09-07T13:19:16;1.77;;;1.70;;
422;SDS011;198;48.752;9.180;2023-09-07T13:21:42;5.30;;;2.40;;
422;SDS011;198;48.752;9.180;2023-09-07T13:24:07;2.45;;;2.25;;
422;SDS011;198;48.752;9.180;2023-09-07T13:26:33;2.90;;;2.63;;
422;SDS011;198;48.752;9.180;2023-09-07T13:28:58;4.43;;;2.50;;
422;SDS011;198;48.752;9.180;2023-09-07T13:31:24;7.50;;;3.08;;
422;SDS011;198;48.752;9.180;2023-09-07T13:33:49;3.72;;;3.10;;
422;SDS011;198;48.752;9.180;2023-09-07T13:36:15;5.28;;;2.45;;
422;SDS011;198;48.752;9.180;2023-09-07T13:38:42;2.47;;;2.28;;
422;SDS011;198;48.752;9.180;2023-09-07T13:41:08;2.28;;;2.08;;
422;SDS011;198;48.752;9.180;2023-09-07T13:43:34;3.22;;;2.70;;
422;SDS011;198;48.752;9.180;2023-09-07T13:45:59;4.90;;;2.28;;
422;SDS011;198;48.752;9.180;2023-09-07T13:48:25;3.22;;;2.00;;
422;SDS011;198;48.752;9.180;2023-09-07T13:50:50;9.10;;;2.47;;
422;SDS011;198;48.752;9.180;2023-09-07T13:53:16;2.47;;;2.28;;
422;SDS011;198;48.752;9.180;2023-09-07T13:55:41;2.22;;;1.90;;
422;SDS011;198;48.752;9.180;2023-09-07T13:58:09;1.80;;;1.70;;
422;SDS011;198;48.752;9.180;2023-09-07T14:00:34;4.78;;;2.00;;
422;SDS011;198;48.752;9.180;2023-09-07T14:03:00;4.35;;;2.30;;
422;SDS011;198;48.752;9.180;2023-09-07T14:05:25;3.45;;;2.20;;
422;SDS011;198;48.752;9.180;2023-09-07T14:07:51;3.60;;;2.05;;
422;SDS011;198;48.752;9.180;2023-09-07T14:10:16;2.38;;;2.17;;
422;SDS011;198;48.752;9.180;2023-09-07T14:12:42;8.95;;;2.67;;
422;SDS011;198;48.752;9.180;2023-09-07T14:15:09;3.85;;;2.03;;
422;SDS011;198;48.752;9.180;2023-09-07T14:17:34;3.60;;;1.77;;
422;SDS011;198;48.752;9.180;2023-09-07T14:20:00;1.73;;;1.63;;
422;SDS011;198;48.752;9.180;2023-09-07T14:22:25;2.15;;;1.98;;
422;SDS011;198;48.752;9.180;2023-09-07T14:24:51;2.83;;;2.65;;
422;SDS011;198;48.752;9.180;2023-09-07T14:27:16;2.33;;;2.13;;
422;SDS011;198;48.752;9.180;2023-09-07T14:29:42;3.40;;;2.47;;
422;SDS011;198;48.752;9.180;2023-09-07T14:32:08;2.42;;;2.10;;
422;SDS011;198;48.752;9.180;2023-09-07T14:34:33;2.90;;;1.67;;
422;SDS011;198;48.752;9.180;2023-09-07T14:36:59;1.83;;;1.73;;
422;SDS011;198;48.752;9.180;2023-09-07T14:39:24;4.28;;;1.90;;
422;SDS011;198;48.752;9.180;2023-09-07T14:41:50;2.55;;;2.20;;
422;SDS011;198;48.752;9.180;2023-09-07T14:44:19;2.35;;;2.20;;
422;SDS011;198;48.752;9.180;2023-09-07T14:46:45;1.88;;;1.77;;
422;SDS011;198;48.752;9.180;2023-09-07T14:49:14;3.25;;;2.28;;
422;SDS011;198;48.752;9.180;2023-09-07T14:51:40;2.45;;;1.80;;
422;SDS011;198;48.752;9.180;2023-09-07T14:54:05;5.20;;;2.63;;
422;SDS011;198;48.752;9.180;2023-09-07T14:56:31;5.13;;;2.10;;
422;SDS011;198;48.752;9.180;2023-09-07T14:59:00;2.50;;;2.30;;
422;SDS011;198;48.752;9.180;2023-09-07T15:01:26;1.88;;;1.77;;
422;SDS011;198;48.752;9.180;2023-09-07T15:03:51;2.95;;;2.00;;
422;SDS011;198;48.752;9.180;2023-09-07T15:06:17;2.03;;;1.90;;
422;SDS011;198;48.752;9.180;2023-09-07T15:08:43;2.38;;;2.03;;
422;SDS011;198;48.752;9.180;2023-09-07T15:11:09;6.53;;;2.33;;
422;SDS011;198;48.752;9.180;2023-09-07T15:13:37;2.00;;;1.90;;
422;SDS011;198;48.752;9.180;2023-09-07T15:16:02;2.25;;;2.10;;
422;SDS011;198;48.752;9.180;2023-09-07T15:18:29;6.28;;;2.47;;
422;SDS011;198;48.752;9.180;2023-09-07T15:20:55;2.00;;;1.90;;
422;SDS011;198;48.752;9.180;2023-09-07T15:23:21;2.28;;;1.90;;
422;SDS011;198;48.752;9.180;2023-09-07T15:25:47;4.43;;;2.45;;
422;SDS011;198;48.752;9.180;2023-09-07T15:28:13;2.05;;;1.92;;
422;SDS011;198;48.752;9.180;2023-09-07T15:30:38;3.15;;;2.20;;
422;SDS011;198;48.752;9.180;2023-09-07T15:33:04;2.00;;;1.90;;
422;SDS011;198;48.752;9.180;2023-09-07T15:35:29;5.70;;;2.40;;
422;SDS011;198;48.752;9.180;2023-09-07T15:37:55;4.03;;;2.17;;
422;SDS011;198;48.752;9.180;2023-09-07T15:40:20;6.65;;;2.33;;